sensor_id;sensor_type;location;lat;lon;timestamp;P1;durP1;ratioP1;P2;durP2;ratioP2
79330;SDS011;68797;49.782;19.054;2023-05-02T00:01:43;15.82;;;8.40;;
79330;SDS011;68797;49.782;19.054;2023-05-02T00:04:10;13.93;;;8.30;;
79330;SDS011;68797;49.782;19.054;2023-05-02T00:06:36;14.65;;;7.03;;
79330;SDS011;68797;49.782;19.054;2023-05-02T00:09:02;14.77;;;7.20;;
79330;SDS011;68797;49.782;19.054;2023-05-02T00:11:28;14.13;;;7.25;;
79330;SDS011;68797;49.782;19.054;2023-05-02T00:13:55;16.63;;;9.02;;
79330;SDS011;68797;49.782;19.054;2023-05-02T00:16:21;14.60;;;7.53;;
79330;SDS011;68797;49.782;19.054;2023-05-02T00:18:47;11.43;;;6.47;;
79330;SDS011;68797;49.782;19.054;2023-05-02T00:21:13;11.48;;;6.95;;
79330;SDS011;68797;49.782;19.054;2023-05-02T00:23:40;13.70;;;6.57;;
79330;SDS011;68797;49.782;19.054;2023-05-02T00:26:09;11.13;;;6.35;;
79330;SDS011;68797;49.782;19.054;2023-05-02T00:28:38;11.23;;;6.28;;
79330;SDS011;68797;49.782;19.054;2023-05-02T00:31:04;9.57;;;6.38;;
79330;SDS011;68797;49.782;19.054;2023-05-02T00:33:31;10.90;;;6.00;;
79330;SDS011;68797;49.782;19.054;2023-05-02T00:35:57;10.25;;;6.07;;
79330;SDS011;68797;49.782;19.054;2023-05-02T00:38:24;9.48;;;6.43;;
79330;SDS011;68797;49.782;19.054;2023-05-02T00:40:50;10.73;;;5.90;;
79330;SDS011;68797;49.782;19.054;2023-05-02T00:43:18;11.25;;;6.28;;
79330;SDS011;68797;49.782;19.054;2023-05-02T00:45:45;9.00;;;5.47;;
79330;SDS011;68797;49.782;19.054;2023-05-02T00:48:12;9.90;;;5.80;;
79330;SDS011;68797;49.782;19.054;2023-05-02T00:50:39;11.07;;;5.00;;
79330;SDS011;68797;49.782;19.054;2023-05-02T00:53:07;11.98;;;5.35;;
79330;SDS011;68797;49.782;19.054;2023-05-02T00:55:35;13.77;;;4.95;;
79330;SDS011;68797;49.782;19.054;2023-05-02T00:58:02;9.65;;;5.28;;
79330;SDS011;68797;49.782;19.054;2023-05-02T01:00:35;9.23;;;4.95;;
79330;SDS011;68797;49.782;19.054;2023-05-02T01:07:34;7.93;;;4.95;;
79330;SDS011;68797;49.782;19.054;2023-05-02T01:15:08;8.50;;;4.38;;
79330;SDS011;68797;49.782;19.054;2023-05-02T01:17:39;8.45;;;5.00;;
79330;SDS011;68797;49.782;19.054;2023-05-02T01:20:11;7.93;;;4.30;;
79330;SDS011;68797;49.782;19.054;2023-05-02T01:22:40;9.82;;;4.80;;
79330;SDS011;68797;49.782;19.054;2023-05-02T01:25:23;10.10;;;4.28;;
79330;SDS011;68797;49.782;19.054;2023-05-02T01:30:52;8.15;;;4.53;;
79330;SDS011;68797;49.782;19.054;2023-05-02T01:33:21;9.15;;;4.95;;
79330;SDS011;68797;49.782;19.054;2023-05-02T01:35:50;7.88;;;4.63;;
79330;SDS011;68797;49.782;19.054;2023-05-02T01:38:18;7.53;;;4.32;;
79330;SDS011;68797;49.782;19.054;2023-05-02T01:40:46;8.43;;;4.40;;
79330;SDS011;68797;49.782;19.054;2023-05-02T01:43:14;9.57;;;5.00;;
79330;SDS011;68797;49.782;19.054;2023-05-02T01:45:42;7.70;;;4.60;;
79330;SDS011;68797;49.782;19.054;2023-05-02T01:48:10;8.02;;;4.53;;
79330;SDS011;68797;49.782;19.054;2023-05-02T01:50:38;7.50;;;4.35;;
79330;SDS011;68797;49.782;19.054;2023-05-02T01:53:09;7.68;;;4.55;;
79330;SDS011;68797;49.782;19.054;2023-05-02T01:55:39;7.50;;;4.07;;
79330;SDS011;68797;49.782;19.054;2023-05-02T01:58:08;8.93;;;4.47;;
79330;SDS011;68797;49.782;19.054;2023-05-02T02:00:37;8.80;;;3.97;;
79330;SDS011;68797;49.782;19.054;2023-05-02T02:03:05;6.05;;;3.53;;
79330;SDS011;68797;49.782;19.054;2023-05-02T02:05:34;9.40;;;4.13;;
79330;SDS011;68797;49.782;19.054;2023-05-02T02:08:02;6.22;;;4.70;;
79330;SDS011;68797;49.782;19.054;2023-05-02T02:10:30;9.98;;;5.10;;
79330;SDS011;68797;49.782;19.054;2023-05-02T02:13:25;12.05;;;4.90;;
79330;SDS011;68797;49.782;19.054;2023-05-02T02:15:52;9.27;;;4.45;;
79330;SDS011;68797;49.782;19.054;2023-05-02T02:18:26;7.93;;;4.70;;
79330;SDS011;68797;49.782;19.054;2023-05-02T02:20:54;9.40;;;5.03;;
79330;SDS011;68797;49.782;19.054;2023-05-02T02:23:24;10.55;;;5.30;;
79330;SDS011;68797;49.782;19.054;2023-05-02T02:25:53;9.25;;;4.70;;
79330;SDS011;68797;49.782;19.054;2023-05-02T02:28:20;8.93;;;4.28;;
79330;SDS011;68797;49.782;19.054;2023-05-02T02:30:47;10.40;;;5.70;;
79330;SDS011;68797;49.782;19.054;2023-05-02T02:33:13;10.50;;;5.78;;
79330;SDS011;68797;49.782;19.054;2023-05-02T02:35:41;10.10;;;5.18;;
79330;SDS011;68797;49.782;19.054;2023-05-02T02:51:57;8.30;;;4.70;;
79330;SDS011;68797;49.782;19.054;2023-05-02T02:54:46;8.43;;;4.18;;
79330;SDS011;68797;49.782;19.054;2023-05-02T02:57:22;9.13;;;4.32;;
79330;SDS011;68797;49.782;19.054;2023-05-02T03:00:06;8.73;;;4.28;;
79330;SDS011;68797;49.782;19.054;2023-05-02T03:02:36;8.45;;;4.65;;
79330;SDS011;68797;49.782;19.054;2023-05-02T03:05:07;7.90;;;4.10;;
79330;SDS011;68797;49.782;19.054;2023-05-02T03:07:35;7.38;;;4.07;;
79330;SDS011;68797;49.782;19.054;2023-05-02T03:10:02;5.60;;;3.55;;
79330;SDS011;68797;49.782;19.054;2023-05-02T03:12:31;8.27;;;3.60;;
79330;SDS011;68797;49.782;19.054;2023-05-02T03:16:00;6.75;;;4.07;;
79330;SDS011;68797;49.782;19.054;2023-05-02T03:18:12;6.38;;;3.00;;
79330;SDS011;68797;49.782;19.054;2023-05-02T03:20:38;7.78;;;3.42;;
79330;SDS011;68797;49.782;19.054;2023-05-02T03:23:05;6.13;;;3.10;;
79330;SDS011;68797;49.782;19.054;2023-05-02T03:25:31;5.25;;;3.00;;
79330;SDS011;68797;49.782;19.054;2023-05-02T03:27:58;6.65;;;3.22;;
79330;SDS011;68797;49.782;19.054;2023-05-02T03:30:24;6.47;;;3.55;;
79330;SDS011;68797;49.782;19.054;2023-05-02T03:32:51;5.10;;;2.65;;
79330;SDS011;68797;49.782;19.054;2023-05-02T03:35:17;4.35;;;2.70;;
79330;SDS011;68797;49.782;19.054;2023-05-02T03:37:45;6.47;;;3.30;;
79330;SDS011;68797;49.782;19.054;2023-05-02T03:40:12;9.98;;;2.95;;
79330;SDS011;68797;49.782;19.054;2023-05-02T03:42:38;5.45;;;2.80;;
79330;SDS011;68797;49.782;19.054;2023-05-02T03:45:13;6.43;;;3.00;;
79330;SDS011;68797;49.782;19.054;2023-05-02T03:47:40;8.05;;;3.15;;
79330;SDS011;68797;49.782;19.054;2023-05-02T03:50:06;5.53;;;3.55;;
79330;SDS011;68797;49.782;19.054;2023-05-02T03:52:33;6.10;;;2.70;;
79330;SDS011;68797;49.782;19.054;2023-05-02T03:55:00;6.82;;;2.97;;
79330;SDS011;68797;49.782;19.054;2023-05-02T03:57:30;6.25;;;3.17;;
79330;SDS011;68797;49.782;19.054;2023-05-02T03:59:56;6.10;;;3.42;;
79330;SDS011;68797;49.782;19.054;2023-05-02T04:02:29;6.45;;;3.05;;
79330;SDS011;68797;49.782;19.054;2023-05-02T04:04:56;5.88;;;3.13;;
79330;SDS011;68797;49.782;19.054;2023-05-02T04:07:23;5.68;;;3.40;;
79330;SDS011;68797;49.782;19.054;2023-05-02T04:10:00;6.43;;;3.38;;
79330;SDS011;68797;49.782;19.054;2023-05-02T04:12:29;5.90;;;3.42;;
79330;SDS011;68797;49.782;19.054;2023-05-02T04:14:55;4.82;;;2.92;;
79330;SDS011;68797;49.782;19.054;2023-05-02T04:17:26;5.82;;;3.20;;
79330;SDS011;68797;49.782;19.054;2023-05-02T04:19:52;5.20;;;2.95;;
79330;SDS011;68797;49.782;19.054;2023-05-02T04:22:22;5.70;;;2.85;;
79330;SDS011;68797;49.782;19.054;2023-05-02T04:24:53;5.03;;;2.67;;
79330;SDS011;68797;49.782;19.054;2023-05-02T04:27:20;5.18;;;3.08;;
79330;SDS011;68797;49.782;19.054;2023-05-02T04:29:47;3.40;;;2.50;;
79330;SDS011;68797;49.782;19.054;2023-05-02T04:32:16;5.07;;;2.63;;
79330;SDS011;68797;49.782;19.054;2023-05-02T04:34:42;5.40;;;2.72;;
79330;SDS011;68797;49.782;19.054;2023-05-02T04:39:36;3.13;;;2.30;;
79330;SDS011;68797;49.782;19.054;2023-05-02T04:42:11;5.05;;;2.60;;
79330;SDS011;68797;49.782;19.054;2023-05-02T04:44:47;3.95;;;2.20;;
79330;SDS011;68797;49.782;19.054;2023-05-02T04:47:15;4.45;;;2.10;;
79330;SDS011;68797;49.782;19.054;2023-05-02T04:49:42;3.67;;;2.00;;
79330;SDS011;68797;49.782;19.054;2023-05-02T04:52:08;5.15;;;2.40;;
79330;SDS011;68797;49.782;19.054;2023-05-02T04:54:36;4.55;;;2.42;;
79330;SDS011;68797;49.782;19.054;2023-05-02T04:57:03;4.38;;;2.17;;
79330;SDS011;68797;49.782;19.054;2023-05-02T04:59:33;3.90;;;2.45;;
79330;SDS011;68797;49.782;19.054;2023-05-02T05:02:01;3.88;;;2.40;;
79330;SDS011;68797;49.782;19.054;2023-05-02T05:04:27;5.25;;;2.28;;
79330;SDS011;68797;49.782;19.054;2023-05-02T05:06:54;3.40;;;2.10;;
79330;SDS011;68797;49.782;19.054;2023-05-02T05:09:21;4.38;;;2.15;;
79330;SDS011;68797;49.782;19.054;2023-05-02T05:11:47;5.50;;;2.70;;
79330;SDS011;68797;49.782;19.054;2023-05-02T05:14:14;4.70;;;2.33;;
79330;SDS011;68797;49.782;19.054;2023-05-02T05:16:43;3.70;;;2.10;;
79330;SDS011;68797;49.782;19.054;2023-05-02T05:19:10;3.88;;;2.30;;
79330;SDS011;68797;49.782;19.054;2023-05-02T05:21:37;3.55;;;1.95;;
79330;SDS011;68797;49.782;19.054;2023-05-02T05:24:14;3.58;;;1.90;;
79330;SDS011;68797;49.782;19.054;2023-05-02T05:26:40;3.17;;;1.95;;
79330;SDS011;68797;49.782;19.054;2023-05-02T05:29:07;3.83;;;2.20;;
79330;SDS011;68797;49.782;19.054;2023-05-02T05:31:38;4.20;;;2.10;;
79330;SDS011;68797;49.782;19.054;2023-05-02T05:34:08;5.03;;;2.33;;
79330;SDS011;68797;49.782;19.054;2023-05-02T05:36:35;3.30;;;2.30;;
79330;SDS011;68797;49.782;19.054;2023-05-02T05:39:03;2.67;;;1.95;;
79330;SDS011;68797;49.782;19.054;2023-05-02T05:41:31;4.88;;;2.25;;
79330;SDS011;68797;49.782;19.054;2023-05-02T05:44:02;5.50;;;2.60;;
79330;SDS011;68797;49.782;19.054;2023-05-02T05:46:31;5.15;;;2.90;;
79330;SDS011;68797;49.782;19.054;2023-05-02T05:48:58;7.07;;;3.35;;
79330;SDS011;68797;49.782;19.054;2023-05-02T05:51:27;5.03;;;2.80;;
79330;SDS011;68797;49.782;19.054;2023-05-02T05:53:54;5.53;;;2.55;;
79330;SDS011;68797;49.782;19.054;2023-05-02T05:56:21;4.00;;;2.60;;
79330;SDS011;68797;49.782;19.054;2023-05-02T05:58:55;5.00;;;3.00;;
79330;SDS011;68797;49.782;19.054;2023-05-02T06:01:21;4.70;;;2.80;;
79330;SDS011;68797;49.782;19.054;2023-05-02T06:03:48;6.10;;;3.72;;
79330;SDS011;68797;49.782;19.054;2023-05-02T06:06:16;5.75;;;3.03;;
79330;SDS011;68797;49.782;19.054;2023-05-02T06:08:42;5.30;;;3.42;;
79330;SDS011;68797;49.782;19.054;2023-05-02T06:11:09;5.30;;;3.38;;
79330;SDS011;68797;49.782;19.054;2023-05-02T06:13:38;7.10;;;3.97;;
79330;SDS011;68797;49.782;19.054;2023-05-02T06:18:31;4.53;;;3.60;;
79330;SDS011;68797;49.782;19.054;2023-05-02T06:21:02;3.83;;;2.92;;
79330;SDS011;68797;49.782;19.054;2023-05-02T06:23:29;5.63;;;3.25;;
79330;SDS011;68797;49.782;19.054;2023-05-02T06:25:57;5.07;;;3.28;;
79330;SDS011;68797;49.782;19.054;2023-05-02T06:28:25;6.50;;;2.97;;
79330;SDS011;68797;49.782;19.054;2023-05-02T06:30:58;5.75;;;3.35;;
79330;SDS011;68797;49.782;19.054;2023-05-02T06:33:26;8.02;;;3.30;;
79330;SDS011;68797;49.782;19.054;2023-05-02T06:35:53;5.18;;;3.17;;
79330;SDS011;68797;49.782;19.054;2023-05-02T06:38:19;5.57;;;3.67;;
79330;SDS011;68797;49.782;19.054;2023-05-02T06:45:39;4.75;;;3.53;;
79330;SDS011;68797;49.782;19.054;2023-05-02T06:48:06;8.48;;;3.80;;
79330;SDS011;68797;49.782;19.054;2023-05-02T06:50:33;5.13;;;4.03;;
79330;SDS011;68797;49.782;19.054;2023-05-02T06:52:59;6.40;;;3.97;;
79330;SDS011;68797;49.782;19.054;2023-05-02T06:55:26;8.43;;;4.70;;
79330;SDS011;68797;49.782;19.054;2023-05-02T07:00:19;5.82;;;3.78;;
79330;SDS011;68797;49.782;19.054;2023-05-02T07:02:46;6.53;;;4.47;;
79330;SDS011;68797;49.782;19.054;2023-05-02T07:05:14;6.57;;;3.95;;
79330;SDS011;68797;49.782;19.054;2023-05-02T07:10:08;9.55;;;4.90;;
79330;SDS011;68797;49.782;19.054;2023-05-02T07:12:35;10.25;;;5.47;;
79330;SDS011;68797;49.782;19.054;2023-05-02T07:15:01;8.77;;;4.50;;
79330;SDS011;68797;49.782;19.054;2023-05-02T07:17:27;6.43;;;4.30;;
79330;SDS011;68797;49.782;19.054;2023-05-02T07:19:53;8.75;;;5.45;;
79330;SDS011;68797;49.782;19.054;2023-05-02T07:22:19;9.43;;;4.50;;
79330;SDS011;68797;49.782;19.054;2023-05-02T07:24:46;7.65;;;5.15;;
79330;SDS011;68797;49.782;19.054;2023-05-02T07:27:12;7.35;;;4.97;;
79330;SDS011;68797;49.782;19.054;2023-05-02T07:29:39;8.05;;;5.22;;
79330;SDS011;68797;49.782;19.054;2023-05-02T07:32:07;7.75;;;4.78;;
79330;SDS011;68797;49.782;19.054;2023-05-02T07:34:33;7.50;;;4.60;;
79330;SDS011;68797;49.782;19.054;2023-05-02T07:36:59;7.72;;;4.30;;
79330;SDS011;68797;49.782;19.054;2023-05-02T07:39:26;11.80;;;4.95;;
79330;SDS011;68797;49.782;19.054;2023-05-02T07:41:52;8.43;;;5.05;;
79330;SDS011;68797;49.782;19.054;2023-05-02T07:46:46;6.90;;;4.35;;
79330;SDS011;68797;49.782;19.054;2023-05-02T07:49:12;8.13;;;3.70;;
79330;SDS011;68797;49.782;19.054;2023-05-02T07:51:39;9.02;;;4.25;;
79330;SDS011;68797;49.782;19.054;2023-05-02T07:54:18;5.00;;;3.80;;
79330;SDS011;68797;49.782;19.054;2023-05-02T07:56:46;4.78;;;3.60;;
79330;SDS011;68797;49.782;19.054;2023-05-02T07:59:12;4.35;;;2.78;;
79330;SDS011;68797;49.782;19.054;2023-05-02T08:01:39;4.55;;;3.10;;
79330;SDS011;68797;49.782;19.054;2023-05-02T08:04:06;7.47;;;3.60;;
79330;SDS011;68797;49.782;19.054;2023-05-02T08:06:34;3.38;;;2.75;;
79330;SDS011;68797;49.782;19.054;2023-05-02T08:09:01;6.20;;;2.95;;
79330;SDS011;68797;49.782;19.054;2023-05-02T08:11:27;4.85;;;3.30;;
79330;SDS011;68797;49.782;19.054;2023-05-02T08:13:54;5.32;;;3.05;;
79330;SDS011;68797;49.782;19.054;2023-05-02T08:16:20;4.47;;;2.85;;
79330;SDS011;68797;49.782;19.054;2023-05-02T08:18:46;3.97;;;2.80;;
79330;SDS011;68797;49.782;19.054;2023-05-02T08:21:13;4.68;;;2.83;;
79330;SDS011;68797;49.782;19.054;2023-05-02T08:23:39;5.30;;;3.30;;
79330;SDS011;68797;49.782;19.054;2023-05-02T08:26:07;4.47;;;3.30;;
79330;SDS011;68797;49.782;19.054;2023-05-02T08:28:35;5.32;;;3.30;;
79330;SDS011;68797;49.782;19.054;2023-05-02T08:31:02;5.82;;;3.03;;
79330;SDS011;68797;49.782;19.054;2023-05-02T08:33:28;7.22;;;3.67;;
79330;SDS011;68797;49.782;19.054;2023-05-02T08:35:54;5.85;;;2.95;;
79330;SDS011;68797;49.782;19.054;2023-05-02T08:38:20;4.40;;;3.22;;
79330;SDS011;68797;49.782;19.054;2023-05-02T08:40:46;4.40;;;3.00;;
79330;SDS011;68797;49.782;19.054;2023-05-02T08:43:15;4.00;;;2.85;;
79330;SDS011;68797;49.782;19.054;2023-05-02T08:45:43;3.92;;;2.80;;
79330;SDS011;68797;49.782;19.054;2023-05-02T08:48:11;3.75;;;2.78;;
79330;SDS011;68797;49.782;19.054;2023-05-02T08:50:39;5.40;;;2.85;;
79330;SDS011;68797;49.782;19.054;2023-05-02T08:53:10;4.22;;;2.83;;
79330;SDS011;68797;49.782;19.054;2023-05-02T08:55:38;4.32;;;2.83;;
79330;SDS011;68797;49.782;19.054;2023-05-02T08:58:07;4.68;;;3.08;;
79330;SDS011;68797;49.782;19.054;2023-05-02T09:00:39;7.18;;;3.33;;
79330;SDS011;68797;49.782;19.054;2023-05-02T09:06:17;5.63;;;2.97;;
79330;SDS011;68797;49.782;19.054;2023-05-02T09:08:47;4.65;;;2.97;;
79330;SDS011;68797;49.782;19.054;2023-05-02T09:11:14;4.90;;;3.58;;
79330;SDS011;68797;49.782;19.054;2023-05-02T09:13:45;3.58;;;3.22;;
79330;SDS011;68797;49.782;19.054;2023-05-02T09:16:17;4.35;;;2.90;;
79330;SDS011;68797;49.782;19.054;2023-05-02T09:18:48;6.57;;;3.03;;
79330;SDS011;68797;49.782;19.054;2023-05-02T09:21:17;5.53;;;2.97;;
79330;SDS011;68797;49.782;19.054;2023-05-02T09:23:48;4.32;;;2.70;;
79330;SDS011;68797;49.782;19.054;2023-05-02T09:26:25;4.13;;;2.35;;
79330;SDS011;68797;49.782;19.054;2023-05-02T09:28:58;3.30;;;2.80;;
79330;SDS011;68797;49.782;19.054;2023-05-02T09:31:26;4.25;;;2.80;;
79330;SDS011;68797;49.782;19.054;2023-05-02T09:34:08;3.50;;;2.58;;
79330;SDS011;68797;49.782;19.054;2023-05-02T09:36:39;3.58;;;2.80;;
79330;SDS011;68797;49.782;19.054;2023-05-02T09:39:15;3.97;;;2.95;;
79330;SDS011;68797;49.782;19.054;2023-05-02T09:41:43;5.70;;;2.75;;
79330;SDS011;68797;49.782;19.054;2023-05-02T09:44:12;5.47;;;2.60;;
79330;SDS011;68797;49.782;19.054;2023-05-02T09:46:43;6.05;;;3.15;;
79330;SDS011;68797;49.782;19.054;2023-05-02T09:49:12;3.72;;;2.80;;
79330;SDS011;68797;49.782;19.054;2023-05-02T09:51:39;4.78;;;3.00;;
79330;SDS011;68797;49.782;19.054;2023-05-02T09:54:06;3.92;;;3.17;;
79330;SDS011;68797;49.782;19.054;2023-05-02T09:56:50;5.90;;;3.38;;
79330;SDS011;68797;49.782;19.054;2023-05-02T09:59:17;7.10;;;3.13;;
79330;SDS011;68797;49.782;19.054;2023-05-02T10:01:43;3.83;;;3.13;;
79330;SDS011;68797;49.782;19.054;2023-05-02T10:06:43;7.10;;;3.15;;
79330;SDS011;68797;49.782;19.054;2023-05-02T10:09:10;4.15;;;3.40;;
79330;SDS011;68797;49.782;19.054;2023-05-02T10:11:43;4.28;;;3.08;;
79330;SDS011;68797;49.782;19.054;2023-05-02T10:14:10;3.67;;;2.83;;
79330;SDS011;68797;49.782;19.054;2023-05-02T10:16:37;4.05;;;3.13;;
79330;SDS011;68797;49.782;19.054;2023-05-02T10:19:32;3.97;;;2.65;;
79330;SDS011;68797;49.782;19.054;2023-05-02T10:22:10;4.90;;;2.90;;
79330;SDS011;68797;49.782;19.054;2023-05-02T10:24:38;4.47;;;3.05;;
79330;SDS011;68797;49.782;19.054;2023-05-02T10:27:06;6.10;;;2.80;;
79330;SDS011;68797;49.782;19.054;2023-05-02T10:29:33;5.38;;;3.10;;
79330;SDS011;68797;49.782;19.054;2023-05-02T10:32:00;4.25;;;2.88;;
79330;SDS011;68797;49.782;19.054;2023-05-02T10:34:31;5.30;;;2.80;;
79330;SDS011;68797;49.782;19.054;2023-05-02T10:36:58;4.90;;;3.60;;
79330;SDS011;68797;49.782;19.054;2023-05-02T10:39:28;4.90;;;3.50;;
79330;SDS011;68797;49.782;19.054;2023-05-02T10:41:57;5.47;;;3.40;;
79330;SDS011;68797;49.782;19.054;2023-05-02T10:44:34;4.50;;;3.50;;
79330;SDS011;68797;49.782;19.054;2023-05-02T10:47:20;6.13;;;3.72;;
79330;SDS011;68797;49.782;19.054;2023-05-02T10:49:58;9.45;;;2.90;;
79330;SDS011;68797;49.782;19.054;2023-05-02T10:52:33;6.47;;;3.28;;
79330;SDS011;68797;49.782;19.054;2023-05-02T10:55:13;8.98;;;4.38;;
79330;SDS011;68797;49.782;19.054;2023-05-02T11:02:54;8.75;;;3.40;;
79330;SDS011;68797;49.782;19.054;2023-05-02T11:05:21;5.97;;;3.10;;
79330;SDS011;68797;49.782;19.054;2023-05-02T11:07:49;5.93;;;3.42;;
79330;SDS011;68797;49.782;19.054;2023-05-02T11:18:00;5.07;;;3.22;;
79330;SDS011;68797;49.782;19.054;2023-05-02T11:20:28;4.82;;;3.17;;
79330;SDS011;68797;49.782;19.054;2023-05-02T11:22:57;4.63;;;3.35;;
79330;SDS011;68797;49.782;19.054;2023-05-02T11:25:48;3.92;;;2.80;;
79330;SDS011;68797;49.782;19.054;2023-05-02T11:30:59;6.55;;;3.40;;
79330;SDS011;68797;49.782;19.054;2023-05-02T11:33:26;5.15;;;3.63;;
79330;SDS011;68797;49.782;19.054;2023-05-02T11:35:53;4.50;;;3.30;;
79330;SDS011;68797;49.782;19.054;2023-05-02T11:38:22;6.65;;;4.15;;
79330;SDS011;68797;49.782;19.054;2023-05-02T11:40:51;7.07;;;3.50;;
79330;SDS011;68797;49.782;19.054;2023-05-02T11:43:17;7.53;;;4.03;;
79330;SDS011;68797;49.782;19.054;2023-05-02T11:45:46;6.45;;;4.25;;
79330;SDS011;68797;49.782;19.054;2023-05-02T11:48:14;7.20;;;3.47;;
79330;SDS011;68797;49.782;19.054;2023-05-02T11:50:49;6.85;;;3.95;;
79330;SDS011;68797;49.782;19.054;2023-05-02T11:53:21;7.55;;;4.00;;
79330;SDS011;68797;49.782;19.054;2023-05-02T11:55:53;6.28;;;3.55;;
79330;SDS011;68797;49.782;19.054;2023-05-02T11:58:26;6.28;;;3.70;;
79330;SDS011;68797;49.782;19.054;2023-05-02T12:01:10;8.30;;;3.92;;
79330;SDS011;68797;49.782;19.054;2023-05-02T12:03:40;5.55;;;3.67;;
79330;SDS011;68797;49.782;19.054;2023-05-02T12:08:38;5.47;;;3.70;;
79330;SDS011;68797;49.782;19.054;2023-05-02T12:11:05;5.78;;;3.60;;
79330;SDS011;68797;49.782;19.054;2023-05-02T12:13:32;6.32;;;3.35;;
79330;SDS011;68797;49.782;19.054;2023-05-02T12:18:25;5.20;;;3.85;;
79330;SDS011;68797;49.782;19.054;2023-05-02T12:20:53;5.13;;;3.35;;
79330;SDS011;68797;49.782;19.054;2023-05-02T12:23:21;4.82;;;3.40;;
79330;SDS011;68797;49.782;19.054;2023-05-02T12:25:49;6.30;;;3.30;;
79330;SDS011;68797;49.782;19.054;2023-05-02T12:28:16;5.40;;;3.58;;
79330;SDS011;68797;49.782;19.054;2023-05-02T12:30:46;7.18;;;4.20;;
79330;SDS011;68797;49.782;19.054;2023-05-02T12:33:13;7.80;;;4.28;;
79330;SDS011;68797;49.782;19.054;2023-05-02T12:35:39;4.80;;;3.90;;
79330;SDS011;68797;49.782;19.054;2023-05-02T12:40:46;7.00;;;3.58;;
79330;SDS011;68797;49.782;19.054;2023-05-02T12:43:13;6.43;;;3.97;;
79330;SDS011;68797;49.782;19.054;2023-05-02T12:45:40;5.65;;;4.10;;
79330;SDS011;68797;49.782;19.054;2023-05-02T12:48:23;11.52;;;4.28;;
79330;SDS011;68797;49.782;19.054;2023-05-02T12:50:51;7.93;;;3.97;;
79330;SDS011;68797;49.782;19.054;2023-05-02T12:53:39;10.35;;;3.88;;
79330;SDS011;68797;49.782;19.054;2023-05-02T12:56:12;8.55;;;4.10;;
79330;SDS011;68797;49.782;19.054;2023-05-02T12:58:39;4.72;;;3.53;;
79330;SDS011;68797;49.782;19.054;2023-05-02T13:01:08;6.03;;;3.67;;
79330;SDS011;68797;49.782;19.054;2023-05-02T13:03:35;5.97;;;4.05;;
79330;SDS011;68797;49.782;19.054;2023-05-02T13:06:02;4.80;;;3.40;;
79330;SDS011;68797;49.782;19.054;2023-05-02T13:08:28;5.38;;;4.03;;
79330;SDS011;68797;49.782;19.054;2023-05-02T13:10:54;4.78;;;3.47;;
79330;SDS011;68797;49.782;19.054;2023-05-02T13:13:21;7.32;;;5.30;;
79330;SDS011;68797;49.782;19.054;2023-05-02T13:15:48;5.10;;;3.95;;
79330;SDS011;68797;49.782;19.054;2023-05-02T13:18:14;5.13;;;3.47;;
79330;SDS011;68797;49.782;19.054;2023-05-02T13:20:40;5.22;;;3.80;;
79330;SDS011;68797;49.782;19.054;2023-05-02T13:23:06;6.80;;;3.88;;
79330;SDS011;68797;49.782;19.054;2023-05-02T13:25:33;5.82;;;4.40;;
79330;SDS011;68797;49.782;19.054;2023-05-02T13:27:59;6.00;;;3.88;;
79330;SDS011;68797;49.782;19.054;2023-05-02T13:30:25;7.95;;;4.68;;
79330;SDS011;68797;49.782;19.054;2023-05-02T13:32:51;6.95;;;3.95;;
79330;SDS011;68797;49.782;19.054;2023-05-02T13:35:18;5.85;;;4.47;;
79330;SDS011;68797;49.782;19.054;2023-05-02T13:37:44;8.18;;;4.47;;
79330;SDS011;68797;49.782;19.054;2023-05-02T13:40:10;5.63;;;3.95;;
79330;SDS011;68797;49.782;19.054;2023-05-02T13:42:37;11.10;;;5.22;;
79330;SDS011;68797;49.782;19.054;2023-05-02T13:45:03;10.93;;;7.53;;
79330;SDS011;68797;49.782;19.054;2023-05-02T13:47:31;10.80;;;6.45;;
79330;SDS011;68797;49.782;19.054;2023-05-02T13:49:57;10.93;;;6.78;;
79330;SDS011;68797;49.782;19.054;2023-05-02T13:52:23;9.32;;;5.60;;
79330;SDS011;68797;49.782;19.054;2023-05-02T13:54:50;7.68;;;5.40;;
79330;SDS011;68797;49.782;19.054;2023-05-02T13:57:16;9.82;;;6.35;;
79330;SDS011;68797;49.782;19.054;2023-05-02T13:59:42;10.65;;;6.82;;
79330;SDS011;68797;49.782;19.054;2023-05-02T14:02:08;9.73;;;7.07;;
79330;SDS011;68797;49.782;19.054;2023-05-02T14:04:35;10.43;;;7.85;;
79330;SDS011;68797;49.782;19.054;2023-05-02T14:07:01;11.32;;;7.32;;
79330;SDS011;68797;49.782;19.054;2023-05-02T14:09:27;11.63;;;6.28;;
79330;SDS011;68797;49.782;19.054;2023-05-02T14:11:53;10.52;;;6.65;;
79330;SDS011;68797;49.782;19.054;2023-05-02T14:14:20;11.07;;;7.03;;
79330;SDS011;68797;49.782;19.054;2023-05-02T14:16:46;11.43;;;7.13;;
79330;SDS011;68797;49.782;19.054;2023-05-02T14:19:13;10.52;;;7.95;;
79330;SDS011;68797;49.782;19.054;2023-05-02T14:21:39;10.77;;;6.88;;
79330;SDS011;68797;49.782;19.054;2023-05-02T14:26:31;11.52;;;7.93;;
79330;SDS011;68797;49.782;19.054;2023-05-02T14:28:58;13.52;;;8.25;;
79330;SDS011;68797;49.782;19.054;2023-05-02T14:31:25;12.93;;;8.15;;
79330;SDS011;68797;49.782;19.054;2023-05-02T14:33:52;9.15;;;7.15;;
79330;SDS011;68797;49.782;19.054;2023-05-02T14:36:18;13.23;;;8.68;;
79330;SDS011;68797;49.782;19.054;2023-05-02T14:38:44;10.57;;;7.82;;
79330;SDS011;68797;49.782;19.054;2023-05-02T14:41:10;13.30;;;8.25;;
79330;SDS011;68797;49.782;19.054;2023-05-02T14:43:37;15.63;;;8.57;;
79330;SDS011;68797;49.782;19.054;2023-05-02T14:46:04;13.85;;;9.52;;
79330;SDS011;68797;49.782;19.054;2023-05-02T14:48:30;17.05;;;11.50;;
79330;SDS011;68797;49.782;19.054;2023-05-02T14:50:56;13.63;;;9.07;;
79330;SDS011;68797;49.782;19.054;2023-05-02T14:53:25;17.65;;;11.23;;
79330;SDS011;68797;49.782;19.054;2023-05-02T14:55:51;14.60;;;8.95;;
79330;SDS011;68797;49.782;19.054;2023-05-02T14:58:18;11.38;;;8.02;;
79330;SDS011;68797;49.782;19.054;2023-05-02T15:00:45;10.70;;;8.40;;
79330;SDS011;68797;49.782;19.054;2023-05-02T15:05:37;9.82;;;7.13;;
79330;SDS011;68797;49.782;19.054;2023-05-02T15:10:34;11.95;;;8.32;;
79330;SDS011;68797;49.782;19.054;2023-05-02T15:13:01;22.48;;;13.07;;
79330;SDS011;68797;49.782;19.054;2023-05-02T15:15:29;13.25;;;6.28;;
79330;SDS011;68797;49.782;19.054;2023-05-02T15:17:55;10.45;;;5.38;;
79330;SDS011;68797;49.782;19.054;2023-05-02T15:20:21;10.27;;;6.72;;
79330;SDS011;68797;49.782;19.054;2023-05-02T15:22:48;11.30;;;7.32;;
79330;SDS011;68797;49.782;19.054;2023-05-02T15:25:14;13.25;;;8.40;;
79330;SDS011;68797;49.782;19.054;2023-05-02T15:27:40;17.10;;;9.68;;
79330;SDS011;68797;49.782;19.054;2023-05-02T15:30:07;14.95;;;10.00;;
79330;SDS011;68797;49.782;19.054;2023-05-02T15:32:33;12.52;;;9.82;;
79330;SDS011;68797;49.782;19.054;2023-05-02T15:35:00;13.85;;;8.20;;
79330;SDS011;68797;49.782;19.054;2023-05-02T15:37:27;11.88;;;8.38;;
79330;SDS011;68797;49.782;19.054;2023-05-02T15:39:53;16.08;;;7.85;;
79330;SDS011;68797;49.782;19.054;2023-05-02T15:42:19;14.52;;;7.93;;
79330;SDS011;68797;49.782;19.054;2023-05-02T15:44:45;13.98;;;8.20;;
79330;SDS011;68797;49.782;19.054;2023-05-02T15:47:12;11.88;;;7.80;;
79330;SDS011;68797;49.782;19.054;2023-05-02T15:49:38;10.13;;;7.47;;
79330;SDS011;68797;49.782;19.054;2023-05-02T15:52:04;12.15;;;7.95;;
79330;SDS011;68797;49.782;19.054;2023-05-02T15:54:30;9.77;;;7.55;;
79330;SDS011;68797;49.782;19.054;2023-05-02T15:56:58;12.13;;;7.55;;
79330;SDS011;68797;49.782;19.054;2023-05-02T15:59:24;12.82;;;6.85;;